sensor_id;sensor_type;location;lat;lon;timestamp;P1;durP1;ratioP1;P2;durP2;ratioP2
67585;SDS011;55785;47.946;20.540;2024-03-02T00:00:50;13.73;;;4.30;;
67585;SDS011;55785;47.946;20.540;2024-03-02T00:03:17;6.43;;;3.35;;
67585;SDS011;55785;47.946;20.540;2024-03-02T00:05:43;10.13;;;4.28;;
67585;SDS011;55785;47.946;20.540;2024-03-02T00:08:08;5.03;;;3.03;;
67585;SDS011;55785;47.946;20.540;2024-03-02T00:10:37;13.57;;;3.97;;
67585;SDS011;55785;47.946;20.540;2024-03-02T00:13:03;6.18;;;3.50;;
67585;SDS011;55785;47.946;20.540;2024-03-02T00:15:48;6.28;;;3.70;;
67585;SDS011;55785;47.946;20.540;2024-03-02T00:18:18;14.65;;;4.25;;
67585;SDS011;55785;47.946;20.540;2024-03-02T00:20:52;7.65;;;4.10;;
67585;SDS011;55785;47.946;20.540;2024-03-02T00:23:19;9.23;;;4.03;;
67585;SDS011;55785;47.946;20.540;2024-03-02T00:25:49;7.40;;;3.20;;
67585;SDS011;55785;47.946;20.540;2024-03-02T00:28:17;8.88;;;4.10;;
67585;SDS011;55785;47.946;20.540;2024-03-02T00:30:51;8.10;;;3.78;;
67585;SDS011;55785;47.946;20.540;2024-03-02T00:33:21;9.50;;;4.38;;
67585;SDS011;55785;47.946;20.540;2024-03-02T00:35:47;7.10;;;3.42;;
67585;SDS011;55785;47.946;20.540;2024-03-02T00:38:14;8.20;;;3.92;;
67585;SDS011;55785;47.946;20.540;2024-03-02T00:40:39;7.00;;;4.00;;
67585;SDS011;55785;47.946;20.540;2024-03-02T00:43:05;7.82;;;3.70;;
67585;SDS011;55785;47.946;20.540;2024-03-02T00:45:30;7.50;;;3.50;;
67585;SDS011;55785;47.946;20.540;2024-03-02T00:47:56;13.52;;;4.45;;
67585;SDS011;55785;47.946;20.540;2024-03-02T00:50:22;9.88;;;3.78;;
67585;SDS011;55785;47.946;20.540;2024-03-02T00:52:47;8.98;;;3.42;;
67585;SDS011;55785;47.946;20.540;2024-03-02T00:55:13;9.27;;;4.38;;
67585;SDS011;55785;47.946;20.540;2024-03-02T00:57:38;6.53;;;3.83;;
67585;SDS011;55785;47.946;20.540;2024-03-02T01:00:03;10.18;;;3.92;;
67585;SDS011;55785;47.946;20.540;2024-03-02T01:02:29;7.78;;;4.03;;
67585;SDS011;55785;47.946;20.540;2024-03-02T01:04:55;8.10;;;4.13;;
67585;SDS011;55785;47.946;20.540;2024-03-02T01:07:20;7.40;;;3.83;;
67585;SDS011;55785;47.946;20.540;2024-03-02T01:09:45;10.63;;;4.32;;
67585;SDS011;55785;47.946;20.540;2024-03-02T01:12:11;11.07;;;4.18;;
67585;SDS011;55785;47.946;20.540;2024-03-02T01:14:36;8.57;;;3.53;;
67585;SDS011;55785;47.946;20.540;2024-03-02T01:17:01;7.50;;;3.67;;
67585;SDS011;55785;47.946;20.540;2024-03-02T01:19:27;7.55;;;4.00;;
67585;SDS011;55785;47.946;20.540;2024-03-02T01:21:52;11.15;;;3.88;;
67585;SDS011;55785;47.946;20.540;2024-03-02T01:24:17;6.78;;;3.60;;
67585;SDS011;55785;47.946;20.540;2024-03-02T01:26:43;6.38;;;3.55;;
67585;SDS011;55785;47.946;20.540;2024-03-02T01:29:08;8.60;;;3.60;;
67585;SDS011;55785;47.946;20.540;2024-03-02T01:31:33;9.02;;;4.07;;
67585;SDS011;55785;47.946;20.540;2024-03-02T01:33:59;9.27;;;3.97;;
67585;SDS011;55785;47.946;20.540;2024-03-02T01:36:24;6.93;;;3.75;;
67585;SDS011;55785;47.946;20.540;2024-03-02T01:38:49;7.97;;;3.95;;
67585;SDS011;55785;47.946;20.540;2024-03-02T01:41:15;5.70;;;3.60;;
67585;SDS011;55785;47.946;20.540;2024-03-02T01:43:40;8.73;;;3.80;;
67585;SDS011;55785;47.946;20.540;2024-03-02T01:46:05;10.40;;;3.97;;
67585;SDS011;55785;47.946;20.540;2024-03-02T01:48:31;8.30;;;3.72;;
67585;SDS011;55785;47.946;20.540;2024-03-02T01:50:56;7.88;;;3.83;;
67585;SDS011;55785;47.946;20.540;2024-03-02T01:53:22;7.53;;;3.65;;
67585;SDS011;55785;47.946;20.540;2024-03-02T01:55:47;9.25;;;3.63;;
67585;SDS011;55785;47.946;20.540;2024-03-02T01:58:12;7.28;;;3.67;;
67585;SDS011;55785;47.946;20.540;2024-03-02T02:00:38;9.18;;;3.53;;
67585;SDS011;55785;47.946;20.540;2024-03-02T02:03:03;6.82;;;3.80;;
67585;SDS011;55785;47.946;20.540;2024-03-02T02:05:29;8.90;;;3.38;;
67585;SDS011;55785;47.946;20.540;2024-03-02T02:07:54;7.35;;;3.92;;
67585;SDS011;55785;47.946;20.540;2024-03-02T02:10:20;6.60;;;3.75;;
67585;SDS011;55785;47.946;20.540;2024-03-02T02:12:45;11.23;;;4.65;;
67585;SDS011;55785;47.946;20.540;2024-03-02T02:15:23;9.93;;;3.67;;
67585;SDS011;55785;47.946;20.540;2024-03-02T02:17:50;10.98;;;3.95;;
67585;SDS011;55785;47.946;20.540;2024-03-02T02:20:15;7.35;;;4.13;;
67585;SDS011;55785;47.946;20.540;2024-03-02T02:22:40;8.02;;;4.40;;
67585;SDS011;55785;47.946;20.540;2024-03-02T02:25:20;5.68;;;3.42;;
67585;SDS011;55785;47.946;20.540;2024-03-02T02:27:46;7.63;;;3.65;;
67585;SDS011;55785;47.946;20.540;2024-03-02T02:30:11;6.55;;;3.63;;
67585;SDS011;55785;47.946;20.540;2024-03-02T02:32:37;9.88;;;4.18;;
67585;SDS011;55785;47.946;20.540;2024-03-02T02:35:02;7.75;;;3.85;;
67585;SDS011;55785;47.946;20.540;2024-03-02T02:37:28;7.85;;;4.03;;
67585;SDS011;55785;47.946;20.540;2024-03-02T02:39:53;12.27;;;4.18;;
67585;SDS011;55785;47.946;20.540;2024-03-02T02:42:18;11.80;;;3.53;;
67585;SDS011;55785;47.946;20.540;2024-03-02T02:44:44;7.25;;;3.78;;
67585;SDS011;55785;47.946;20.540;2024-03-02T02:47:09;6.68;;;3.72;;
67585;SDS011;55785;47.946;20.540;2024-03-02T02:49:34;7.28;;;3.83;;
67585;SDS011;55785;47.946;20.540;2024-03-02T02:52:00;10.60;;;4.07;;
67585;SDS011;55785;47.946;20.540;2024-03-02T02:54:25;7.45;;;3.72;;
67585;SDS011;55785;47.946;20.540;2024-03-02T02:56:50;6.93;;;3.83;;
67585;SDS011;55785;47.946;20.540;2024-03-02T02:59:16;9.13;;;4.00;;
67585;SDS011;55785;47.946;20.540;2024-03-02T03:01:41;5.75;;;3.50;;
67585;SDS011;55785;47.946;20.540;2024-03-02T03:04:06;8.77;;;3.72;;
67585;SDS011;55785;47.946;20.540;2024-03-02T03:06:32;9.00;;;4.13;;
67585;SDS011;55785;47.946;20.540;2024-03-02T03:08:57;9.27;;;3.70;;
67585;SDS011;55785;47.946;20.540;2024-03-02T03:11:22;8.40;;;3.50;;
67585;SDS011;55785;47.946;20.540;2024-03-02T03:13:48;10.73;;;3.78;;
67585;SDS011;55785;47.946;20.540;2024-03-02T03:16:13;8.48;;;4.03;;
67585;SDS011;55785;47.946;20.540;2024-03-02T03:18:38;9.95;;;4.80;;
67585;SDS011;55785;47.946;20.540;2024-03-02T03:21:04;8.38;;;3.58;;
67585;SDS011;55785;47.946;20.540;2024-03-02T03:23:29;8.80;;;4.00;;
67585;SDS011;55785;47.946;20.540;2024-03-02T03:25:54;6.32;;;3.80;;
67585;SDS011;55785;47.946;20.540;2024-03-02T03:28:20;8.57;;;3.83;;
67585;SDS011;55785;47.946;20.540;2024-03-02T03:30:45;8.82;;;4.10;;
67585;SDS011;55785;47.946;20.540;2024-03-02T03:33:10;8.07;;;3.67;;
67585;SDS011;55785;47.946;20.540;2024-03-02T03:35:36;5.05;;;3.22;;
67585;SDS011;55785;47.946;20.540;2024-03-02T03:38:01;7.10;;;4.47;;
67585;SDS011;55785;47.946;20.540;2024-03-02T03:40:27;6.88;;;3.95;;
67585;SDS011;55785;47.946;20.540;2024-03-02T03:42:52;7.47;;;3.58;;
67585;SDS011;55785;47.946;20.540;2024-03-02T03:45:18;6.50;;;3.70;;
67585;SDS011;55785;47.946;20.540;2024-03-02T03:47:45;8.65;;;3.85;;
67585;SDS011;55785;47.946;20.540;2024-03-02T03:50:11;7.90;;;3.75;;
67585;SDS011;55785;47.946;20.540;2024-03-02T03:52:36;8.38;;;4.05;;
67585;SDS011;55785;47.946;20.540;2024-03-02T03:55:01;10.15;;;4.30;;
67585;SDS011;55785;47.946;20.540;2024-03-02T03:57:27;5.90;;;3.50;;
67585;SDS011;55785;47.946;20.540;2024-03-02T03:59:52;7.00;;;3.50;;
67585;SDS011;55785;47.946;20.540;2024-03-02T04:02:18;6.22;;;3.70;;
67585;SDS011;55785;47.946;20.540;2024-03-02T04:04:43;9.70;;;4.70;;
67585;SDS011;55785;47.946;20.540;2024-03-02T04:07:08;7.03;;;3.83;;
67585;SDS011;55785;47.946;20.540;2024-03-02T04:09:34;6.40;;;3.90;;
67585;SDS011;55785;47.946;20.540;2024-03-02T04:11:59;9.68;;;3.92;;
67585;SDS011;55785;47.946;20.540;2024-03-02T04:14:24;7.82;;;3.72;;
67585;SDS011;55785;47.946;20.540;2024-03-02T04:16:50;7.30;;;4.00;;
67585;SDS011;55785;47.946;20.540;2024-03-02T04:19:15;9.70;;;3.45;;
67585;SDS011;55785;47.946;20.540;2024-03-02T04:21:40;8.10;;;4.55;;
67585;SDS011;55785;47.946;20.540;2024-03-02T04:24:06;7.68;;;3.75;;
67585;SDS011;55785;47.946;20.540;2024-03-02T04:26:31;7.72;;;3.22;;
67585;SDS011;55785;47.946;20.540;2024-03-02T04:28:56;7.95;;;3.40;;
67585;SDS011;55785;47.946;20.540;2024-03-02T04:31:22;9.43;;;3.90;;
67585;SDS011;55785;47.946;20.540;2024-03-02T04:33:47;8.00;;;4.00;;
67585;SDS011;55785;47.946;20.540;2024-03-02T04:36:12;10.25;;;3.88;;
67585;SDS011;55785;47.946;20.540;2024-03-02T04:38:38;7.75;;;4.35;;
67585;SDS011;55785;47.946;20.540;2024-03-02T04:41:06;11.35;;;4.00;;
67585;SDS011;55785;47.946;20.540;2024-03-02T04:43:32;6.95;;;3.92;;
67585;SDS011;55785;47.946;20.540;2024-03-02T04:45:58;10.18;;;4.15;;
67585;SDS011;55785;47.946;20.540;2024-03-02T04:48:24;5.38;;;3.15;;
67585;SDS011;55785;47.946;20.540;2024-03-02T04:50:50;6.93;;;3.53;;
67585;SDS011;55785;47.946;20.540;2024-03-02T04:53:15;7.13;;;3.72;;
67585;SDS011;55785;47.946;20.540;2024-03-02T04:55:41;8.60;;;4.25;;
67585;SDS011;55785;47.946;20.540;2024-03-02T04:58:06;11.50;;;3.80;;
67585;SDS011;55785;47.946;20.540;2024-03-02T05:00:32;6.45;;;3.47;;
67585;SDS011;55785;47.946;20.540;2024-03-02T05:02:58;6.47;;;3.65;;
67585;SDS011;55785;47.946;20.540;2024-03-02T05:05:23;6.25;;;3.25;;
67585;SDS011;55785;47.946;20.540;2024-03-02T05:07:49;6.82;;;3.90;;
67585;SDS011;55785;47.946;20.540;2024-03-02T05:10:14;8.20;;;3.58;;
67585;SDS011;55785;47.946;20.540;2024-03-02T05:12:40;7.28;;;3.28;;
67585;SDS011;55785;47.946;20.540;2024-03-02T05:15:05;6.93;;;3.75;;
67585;SDS011;55785;47.946;20.540;2024-03-02T05:17:31;9.10;;;4.25;;
67585;SDS011;55785;47.946;20.540;2024-03-02T05:19:56;11.38;;;4.78;;
67585;SDS011;55785;47.946;20.540;2024-03-02T05:22:21;12.75;;;4.57;;
67585;SDS011;55785;47.946;20.540;2024-03-02T05:24:47;9.57;;;3.97;;
67585;SDS011;55785;47.946;20.540;2024-03-02T05:27:12;9.27;;;4.20;;
67585;SDS011;55785;47.946;20.540;2024-03-02T05:29:37;16.35;;;4.53;;
67585;SDS011;55785;47.946;20.540;2024-03-02T05:32:03;7.72;;;3.70;;
67585;SDS011;55785;47.946;20.540;2024-03-02T05:34:28;5.93;;;3.35;;
67585;SDS011;55785;47.946;20.540;2024-03-02T05:36:54;10.30;;;3.85;;
67585;SDS011;55785;47.946;20.540;2024-03-02T05:39:19;6.32;;;3.45;;
67585;SDS011;55785;47.946;20.540;2024-03-02T05:41:44;6.47;;;3.40;;
67585;SDS011;55785;47.946;20.540;2024-03-02T05:44:10;15.65;;;3.88;;
67585;SDS011;55785;47.946;20.540;2024-03-02T05:46:35;8.18;;;3.95;;
67585;SDS011;55785;47.946;20.540;2024-03-02T05:49:00;7.90;;;4.25;;
67585;SDS011;55785;47.946;20.540;2024-03-02T05:51:26;9.23;;;4.88;;
67585;SDS011;55785;47.946;20.540;2024-03-02T05:53:51;6.47;;;3.70;;
67585;SDS011;55785;47.946;20.540;2024-03-02T05:56:17;4.30;;;3.10;;
67585;SDS011;55785;47.946;20.540;2024-03-02T05:58:42;7.78;;;3.70;;
67585;SDS011;55785;47.946;20.540;2024-03-02T06:01:08;6.55;;;3.80;;
67585;SDS011;55785;47.946;20.540;2024-03-02T06:03:34;9.82;;;3.88;;
67585;SDS011;55785;47.946;20.540;2024-03-02T06:05:59;6.90;;;3.92;;
67585;SDS011;55785;47.946;20.540;2024-03-02T06:08:24;6.88;;;3.85;;
67585;SDS011;55785;47.946;20.540;2024-03-02T06:10:50;6.88;;;3.70;;
67585;SDS011;55785;47.946;20.540;2024-03-02T06:13:15;9.23;;;4.15;;
67585;SDS011;55785;47.946;20.540;2024-03-02T06:15:40;9.35;;;3.80;;
67585;SDS011;55785;47.946;20.540;2024-03-02T06:18:06;8.73;;;4.05;;
67585;SDS011;55785;47.946;20.540;2024-03-02T06:20:31;9.52;;;4.43;;
67585;SDS011;55785;47.946;20.540;2024-03-02T06:22:56;10.52;;;4.10;;
67585;SDS011;55785;47.946;20.540;2024-03-02T06:25:22;8.23;;;4.30;;
67585;SDS011;55785;47.946;20.540;2024-03-02T06:27:47;10.35;;;4.20;;
67585;SDS011;55785;47.946;20.540;2024-03-02T06:30:13;6.68;;;4.25;;
67585;SDS011;55785;47.946;20.540;2024-03-02T06:32:38;8.90;;;3.95;;
67585;SDS011;55785;47.946;20.540;2024-03-02T06:35:04;6.43;;;4.18;;
67585;SDS011;55785;47.946;20.540;2024-03-02T06:37:29;8.85;;;4.32;;
67585;SDS011;55785;47.946;20.540;2024-03-02T06:39:55;8.13;;;4.07;;
67585;SDS011;55785;47.946;20.540;2024-03-02T06:42:20;8.43;;;4.07;;
67585;SDS011;55785;47.946;20.540;2024-03-02T06:44:45;6.38;;;4.07;;
67585;SDS011;55785;47.946;20.540;2024-03-02T06:47:11;9.95;;;3.90;;
67585;SDS011;55785;47.946;20.540;2024-03-02T06:49:36;7.68;;;3.45;;
67585;SDS011;55785;47.946;20.540;2024-03-02T06:52:01;6.75;;;3.90;;
67585;SDS011;55785;47.946;20.540;2024-03-02T06:54:27;8.05;;;3.97;;
67585;SDS011;55785;47.946;20.540;2024-03-02T06:56:52;7.57;;;4.13;;
67585;SDS011;55785;47.946;20.540;2024-03-02T06:59:18;9.63;;;4.22;;
67585;SDS011;55785;47.946;20.540;2024-03-02T07:01:43;12.13;;;4.88;;
67585;SDS011;55785;47.946;20.540;2024-03-02T07:04:08;7.35;;;4.32;;
67585;SDS011;55785;47.946;20.540;2024-03-02T07:06:34;7.72;;;4.28;;
67585;SDS011;55785;47.946;20.540;2024-03-02T07:08:59;8.60;;;3.97;;
67585;SDS011;55785;47.946;20.540;2024-03-02T07:11:24;8.43;;;3.83;;
67585;SDS011;55785;47.946;20.540;2024-03-02T07:13:50;11.88;;;4.10;;
67585;SDS011;55785;47.946;20.540;2024-03-02T07:16:15;7.00;;;4.45;;
67585;SDS011;55785;47.946;20.540;2024-03-02T07:18:40;7.95;;;3.83;;
67585;SDS011;55785;47.946;20.540;2024-03-02T07:21:05;10.18;;;5.05;;
67585;SDS011;55785;47.946;20.540;2024-03-02T07:23:32;11.07;;;4.85;;
67585;SDS011;55785;47.946;20.540;2024-03-02T07:25:57;8.68;;;4.53;;
67585;SDS011;55785;47.946;20.540;2024-03-02T07:28:23;8.57;;;4.45;;
67585;SDS011;55785;47.946;20.540;2024-03-02T07:31:01;13.32;;;4.97;;
67585;SDS011;55785;47.946;20.540;2024-03-02T07:33:26;8.05;;;4.70;;
67585;SDS011;55785;47.946;20.540;2024-03-02T07:35:52;8.63;;;4.53;;
67585;SDS011;55785;47.946;20.540;2024-03-02T07:38:19;6.53;;;4.30;;
67585;SDS011;55785;47.946;20.540;2024-03-02T07:40:44;10.02;;;5.68;;
67585;SDS011;55785;47.946;20.540;2024-03-02T07:43:10;12.95;;;6.20;;
67585;SDS011;55785;47.946;20.540;2024-03-02T07:45:35;14.43;;;7.10;;
67585;SDS011;55785;47.946;20.540;2024-03-02T07:48:00;22.52;;;10.27;;
67585;SDS011;55785;47.946;20.540;2024-03-02T07:50:26;11.63;;;6.40;;
67585;SDS011;55785;47.946;20.540;2024-03-02T07:52:51;12.60;;;7.65;;
67585;SDS011;55785;47.946;20.540;2024-03-02T07:55:16;16.70;;;8.02;;
67585;SDS011;55785;47.946;20.540;2024-03-02T07:57:42;14.98;;;8.23;;
67585;SDS011;55785;47.946;20.540;2024-03-02T08:00:07;27.67;;;12.23;;
67585;SDS011;55785;47.946;20.540;2024-03-02T08:02:33;24.83;;;11.07;;
67585;SDS011;55785;47.946;20.540;2024-03-02T08:04:58;16.02;;;7.63;;
67585;SDS011;55785;47.946;20.540;2024-03-02T08:07:24;20.90;;;9.02;;
67585;SDS011;55785;47.946;20.540;2024-03-02T08:09:49;19.25;;;9.18;;
67585;SDS011;55785;47.946;20.540;2024-03-02T08:12:14;13.88;;;7.57;;
67585;SDS011;55785;47.946;20.540;2024-03-02T08:14:40;10.85;;;6.65;;
67585;SDS011;55785;47.946;20.540;2024-03-02T08:17:05;14.50;;;7.05;;
67585;SDS011;55785;47.946;20.540;2024-03-02T08:19:31;15.85;;;7.53;;
67585;SDS011;55785;47.946;20.540;2024-03-02T08:21:56;14.02;;;7.05;;
67585;SDS011;55785;47.946;20.540;2024-03-02T08:24:22;9.45;;;5.90;;
67585;SDS011;55785;47.946;20.540;2024-03-02T08:26:47;12.05;;;6.03;;
67585;SDS011;55785;47.946;20.540;2024-03-02T08:29:12;15.90;;;6.63;;
67585;SDS011;55785;47.946;20.540;2024-03-02T08:31:38;12.35;;;6.05;;
67585;SDS011;55785;47.946;20.540;2024-03-02T08:34:03;13.82;;;7.10;;
67585;SDS011;55785;47.946;20.540;2024-03-02T08:36:28;14.90;;;6.95;;
67585;SDS011;55785;47.946;20.540;2024-03-02T08:38:54;16.67;;;7.72;;
67585;SDS011;55785;47.946;20.540;2024-03-02T08:41:19;14.00;;;7.32;;
67585;SDS011;55785;47.946;20.540;2024-03-02T08:43:45;15.43;;;8.18;;
67585;SDS011;55785;47.946;20.540;2024-03-02T08:46:10;19.17;;;9.50;;
67585;SDS011;55785;47.946;20.540;2024-03-02T08:48:35;18.63;;;9.63;;
67585;SDS011;55785;47.946;20.540;2024-03-02T08:51:01;20.02;;;7.78;;
67585;SDS011;55785;47.946;20.540;2024-03-02T08:53:26;19.10;;;8.70;;
67585;SDS011;55785;47.946;20.540;2024-03-02T08:55:51;12.20;;;6.88;;
67585;SDS011;55785;47.946;20.540;2024-03-02T08:58:17;13.80;;;6.88;;
67585;SDS011;55785;47.946;20.540;2024-03-02T09:00:42;11.05;;;6.85;;
67585;SDS011;55785;47.946;20.540;2024-03-02T09:03:08;17.13;;;8.07;;
67585;SDS011;55785;47.946;20.540;2024-03-02T09:05:33;14.43;;;7.43;;
67585;SDS011;55785;47.946;20.540;2024-03-02T09:07:58;12.38;;;6.97;;
67585;SDS011;55785;47.946;20.540;2024-03-02T09:10:24;16.75;;;8.40;;
67585;SDS011;55785;47.946;20.540;2024-03-02T09:12:49;16.23;;;8.35;;
67585;SDS011;55785;47.946;20.540;2024-03-02T09:15:14;16.88;;;8.43;;
67585;SDS011;55785;47.946;20.540;2024-03-02T09:17:40;14.13;;;7.70;;
67585;SDS011;55785;47.946;20.540;2024-03-02T09:20:05;18.42;;;7.43;;
67585;SDS011;55785;47.946;20.540;2024-03-02T09:22:31;17.35;;;7.70;;
67585;SDS011;55785;47.946;20.540;2024-03-02T09:24:56;16.65;;;7.97;;
67585;SDS011;55785;47.946;20.540;2024-03-02T09:27:22;13.65;;;7.65;;
67585;SDS011;55785;47.946;20.540;2024-03-02T09:29:47;13.35;;;6.95;;
67585;SDS011;55785;47.946;20.540;2024-03-02T09:32:13;12.43;;;6.90;;
67585;SDS011;55785;47.946;20.540;2024-03-02T09:34:38;14.52;;;6.50;;
67585;SDS011;55785;47.946;20.540;2024-03-02T09:37:03;16.75;;;7.00;;
67585;SDS011;55785;47.946;20.540;2024-03-02T09:39:29;13.40;;;6.82;;
67585;SDS011;55785;47.946;20.540;2024-03-02T09:41:54;14.63;;;6.72;;
67585;SDS011;55785;47.946;20.540;2024-03-02T09:44:20;16.70;;;7.78;;
67585;SDS011;55785;47.946;20.540;2024-03-02T09:46:49;10.15;;;6.07;;
67585;SDS011;55785;47.946;20.540;2024-03-02T09:49:14;11.93;;;6.35;;
67585;SDS011;55785;47.946;20.540;2024-03-02T09:51:40;10.93;;;6.10;;
67585;SDS011;55785;47.946;20.540;2024-03-02T09:54:08;10.05;;;5.60;;
67585;SDS011;55785;47.946;20.540;2024-03-02T09:56:34;11.50;;;5.63;;
67585;SDS011;55785;47.946;20.540;2024-03-02T09:58:59;9.63;;;5.53;;
67585;SDS011;55785;47.946;20.540;2024-03-02T10:01:24;6.85;;;4.15;;
67585;SDS011;55785;47.946;20.540;2024-03-02T10:03:50;7.68;;;4.32;;
67585;SDS011;55785;47.946;20.540;2024-03-02T10:08:44;8.18;;;4.28;;
67585;SDS011;55785;47.946;20.540;2024-03-02T10:11:10;5.65;;;3.45;;
67585;SDS011;55785;47.946;20.540;2024-03-02T10:13:35;7.70;;;4.43;;
67585;SDS011;55785;47.946;20.540;2024-03-02T10:16:06;8.77;;;4.03;;
67585;SDS011;55785;47.946;20.540;2024-03-02T10:18:37;7.28;;;4.10;;
67585;SDS011;55785;47.946;20.540;2024-03-02T10:21:12;6.75;;;3.63;;
67585;SDS011;55785;47.946;20.540;2024-03-02T10:23:38;8.00;;;3.65;;
67585;SDS011;55785;47.946;20.540;2024-03-02T10:26:08;4.28;;;2.72;;
67585;SDS011;55785;47.946;20.540;2024-03-02T10:28:46;6.32;;;3.38;;
67585;SDS011;55785;47.946;20.540;2024-03-02T10:31:11;5.75;;;3.38;;
67585;SDS011;55785;47.946;20.540;2024-03-02T10:33:37;6.47;;;3.00;;
67585;SDS011;55785;47.946;20.540;2024-03-02T10:36:03;3.70;;;2.75;;
67585;SDS011;55785;47.946;20.540;2024-03-02T10:38:29;4.40;;;2.85;;
67585;SDS011;55785;47.946;20.540;2024-03-02T10:40:55;4.65;;;2.63;;
67585;SDS011;55785;47.946;20.540;2024-03-02T10:43:23;5.53;;;2.97;;
67585;SDS011;55785;47.946;20.540;2024-03-02T10:45:49;3.63;;;2.40;;
67585;SDS011;55785;47.946;20.540;2024-03-02T10:48:14;6.93;;;2.90;;
67585;SDS011;55785;47.946;20.540;2024-03-02T10:50:39;6.07;;;3.08;;
67585;SDS011;55785;47.946;20.540;2024-03-02T10:53:05;4.18;;;2.55;;
67585;SDS011;55785;47.946;20.540;2024-03-02T10:55:30;5.43;;;2.40;;
67585;SDS011;55785;47.946;20.540;2024-03-02T10:57:55;6.78;;;3.08;;
67585;SDS011;55785;47.946;20.540;2024-03-02T11:00:25;6.07;;;2.95;;
67585;SDS011;55785;47.946;20.540;2024-03-02T11:02:58;4.80;;;2.92;;
67585;SDS011;55785;47.946;20.540;2024-03-02T11:05:31;3.78;;;2.30;;
67585;SDS011;55785;47.946;20.540;2024-03-02T11:08:17;3.60;;;2.13;;
67585;SDS011;55785;47.946;20.540;2024-03-02T11:13:12;2.63;;;1.55;;
67585;SDS011;55785;47.946;20.540;2024-03-02T11:15:43;4.95;;;2.35;;
67585;SDS011;55785;47.946;20.540;2024-03-02T11:18:09;2.90;;;1.80;;
67585;SDS011;55785;47.946;20.540;2024-03-02T11:20:37;4.45;;;2.88;;
67585;SDS011;55785;47.946;20.540;2024-03-02T11:23:07;3.92;;;2.40;;
67585;SDS011;55785;47.946;20.540;2024-03-02T11:25:33;3.80;;;2.70;;
67585;SDS011;55785;47.946;20.540;2024-03-02T11:28:00;4.30;;;2.10;;
67585;SDS011;55785;47.946;20.540;2024-03-02T11:30:48;8.68;;;4.45;;
67585;SDS011;55785;47.946;20.540;2024-03-02T11:35:42;3.03;;;2.00;;
67585;SDS011;55785;47.946;20.540;2024-03-02T11:38:09;4.10;;;2.15;;
67585;SDS011;55785;47.946;20.540;2024-03-02T11:40:34;3.50;;;1.90;;
67585;SDS011;55785;47.946;20.540;2024-03-02T11:43:00;3.67;;;1.95;;
67585;SDS011;55785;47.946;20.540;2024-03-02T11:45:26;3.47;;;2.05;;
67585;SDS011;55785;47.946;20.540;2024-03-02T11:47:56;3.25;;;2.00;;
67585;SDS011;55785;47.946;20.540;2024-03-02T11:50:30;4.18;;;1.58;;
67585;SDS011;55785;47.946;20.540;2024-03-02T11:53:00;2.47;;;1.70;;
67585;SDS011;55785;47.946;20.540;2024-03-02T11:55:26;2.90;;;1.70;;
67585;SDS011;55785;47.946;20.540;2024-03-02T11:57:54;3.03;;;1.90;;
67585;SDS011;55785;47.946;20.540;2024-03-02T12:00:19;3.70;;;1.70;;
67585;SDS011;55785;47.946;20.540;2024-03-02T12:02:59;2.55;;;1.88;;
67585;SDS011;55785;47.946;20.540;2024-03-02T12:05:26;3.45;;;1.88;;
67585;SDS011;55785;47.946;20.540;2024-03-02T12:08:01;2.40;;;1.75;;
67585;SDS011;55785;47.946;20.540;2024-03-02T12:10:30;3.33;;;1.75;;
67585;SDS011;55785;47.946;20.540;2024-03-02T12:15:26;2.85;;;1.30;;
67585;SDS011;55785;47.946;20.540;2024-03-02T12:17:53;2.17;;;1.60;;
67585;SDS011;55785;47.946;20.540;2024-03-02T12:20:20;2.10;;;1.38;;
67585;SDS011;55785;47.946;20.540;2024-03-02T12:22:45;2.08;;;1.30;;
67585;SDS011;55785;47.946;20.540;2024-03-02T12:25:11;2.00;;;1.40;;
67585;SDS011;55785;47.946;20.540;2024-03-02T12:27:36;3.28;;;1.70;;
67585;SDS011;55785;47.946;20.540;2024-03-02T12:30:04;2.67;;;1.35;;
67585;SDS011;55785;47.946;20.540;2024-03-02T12:32:30;3.63;;;1.80;;
67585;SDS011;55785;47.946;20.540;2024-03-02T12:34:55;2.55;;;1.35;;
67585;SDS011;55785;47.946;20.540;2024-03-02T12:37:21;3.05;;;1.80;;
67585;SDS011;55785;47.946;20.540;2024-03-02T12:39:46;3.22;;;1.75;;
67585;SDS011;55785;47.946;20.540;2024-03-02T12:42:11;3.78;;;2.08;;
67585;SDS011;55785;47.946;20.540;2024-03-02T12:44:37;3.65;;;1.95;;
67585;SDS011;55785;47.946;20.540;2024-03-02T12:47:02;2.63;;;1.90;;
67585;SDS011;55785;47.946;20.540;2024-03-02T12:49:27;3.15;;;1.90;;
67585;SDS011;55785;47.946;20.540;2024-03-02T12:51:53;2.50;;;1.55;;
67585;SDS011;55785;47.946;20.540;2024-03-02T12:54:21;2.28;;;1.42;;
67585;SDS011;55785;47.946;20.540;2024-03-02T12:56:47;3.10;;;1.80;;
67585;SDS011;55785;47.946;20.540;2024-03-02T12:59:19;5.40;;;1.80;;
67585;SDS011;55785;47.946;20.540;2024-03-02T13:01:50;3.20;;;2.10;;
67585;SDS011;55785;47.946;20.540;2024-03-02T13:04:22;6.28;;;3.72;;
67585;SDS011;55785;47.946;20.540;2024-03-02T13:06:51;3.72;;;2.65;;
67585;SDS011;55785;47.946;20.540;2024-03-02T13:09:17;3.88;;;2.38;;
67585;SDS011;55785;47.946;20.540;2024-03-02T13:11:42;3.00;;;1.70;;
67585;SDS011;55785;47.946;20.540;2024-03-02T13:14:10;2.35;;;1.65;;
67585;SDS011;55785;47.946;20.540;2024-03-02T13:16:40;3.42;;;1.75;;
67585;SDS011;55785;47.946;20.540;2024-03-02T13:19:09;1.90;;;1.30;;
67585;SDS011;55785;47.946;20.540;2024-03-02T13:21:36;2.47;;;1.33;;
67585;SDS011;55785;47.946;20.540;2024-03-02T13:24:01;2.03;;;1.40;;
67585;SDS011;55785;47.946;20.540;2024-03-02T13:26:27;1.90;;;1.33;;
67585;SDS011;55785;47.946;20.540;2024-03-02T13:28:52;2.13;;;1.20;;
67585;SDS011;55785;47.946;20.540;2024-03-02T13:31:18;2.90;;;1.27;;
67585;SDS011;55785;47.946;20.540;2024-03-02T13:33:43;3.67;;;1.45;;
67585;SDS011;55785;47.946;20.540;2024-03-02T13:36:08;3.88;;;2.30;;
67585;SDS011;55785;47.946;20.540;2024-03-02T13:38:34;4.95;;;2.80;;
67585;SDS011;55785;47.946;20.540;2024-03-02T13:40:59;4.75;;;2.67;;
67585;SDS011;55785;47.946;20.540;2024-03-02T13:43:24;2.97;;;1.25;;
67585;SDS011;55785;47.946;20.540;2024-03-02T13:45:51;3.20;;;1.40;;
67585;SDS011;55785;47.946;20.540;2024-03-02T13:48:17;1.88;;;1.20;;
67585;SDS011;55785;47.946;20.540;2024-03-02T13:50:42;3.83;;;1.60;;
67585;SDS011;55785;47.946;20.540;2024-03-02T13:53:08;2.75;;;1.60;;
67585;SDS011;55785;47.946;20.540;2024-03-02T13:55:33;3.10;;;1.90;;
67585;SDS011;55785;47.946;20.540;2024-03-02T13:57:58;3.45;;;1.70;;
67585;SDS011;55785;47.946;20.540;2024-03-02T14:00:24;4.30;;;1.50;;
67585;SDS011;55785;47.946;20.540;2024-03-02T14:02:49;3.03;;;1.63;;
67585;SDS011;55785;47.946;20.540;2024-03-02T14:05:15;7.03;;;2.17;;
67585;SDS011;55785;47.946;20.540;2024-03-02T14:07:41;3.72;;;2.03;;
67585;SDS011;55785;47.946;20.540;2024-03-02T14:10:06;2.83;;;1.95;;
67585;SDS011;55785;47.946;20.540;2024-03-02T14:12:32;5.55;;;2.53;;
67585;SDS011;55785;47.946;20.540;2024-03-02T14:14:57;17.63;;;6.50;;
67585;SDS011;55785;47.946;20.540;2024-03-02T14:17:23;4.25;;;2.45;;
67585;SDS011;55785;47.946;20.540;2024-03-02T14:19:49;4.32;;;1.77;;
67585;SDS011;55785;47.946;20.540;2024-03-02T14:22:14;3.25;;;1.63;;
67585;SDS011;55785;47.946;20.540;2024-03-02T14:24:40;2.75;;;1.80;;
67585;SDS011;55785;47.946;20.540;2024-03-02T14:27:05;2.20;;;1.50;;
67585;SDS011;55785;47.946;20.540;2024-03-02T14:29:30;3.13;;;1.60;;
67585;SDS011;55785;47.946;20.540;2024-03-02T14:31:56;4.75;;;1.60;;
67585;SDS011;55785;47.946;20.540;2024-03-02T14:34:21;7.47;;;2.92;;